createdAt,value
2018-03-03T00:01:45.288Z,55.92
2018-03-03T00:04:13.494Z,55.25
2018-03-03T00:06:41.646Z,55.28
2018-03-03T00:09:09.786Z,55.35
2018-03-03T00:11:37.961Z,53.65
2018-03-03T00:14:06.108Z,52.15
2018-03-03T00:16:34.262Z,56.03
2018-03-03T00:19:02.418Z,55.25
2018-03-03T00:21:31.326Z,56.33
2018-03-03T00:23:59.472Z,58.42
2018-03-03T00:26:27.594Z,53.63
2018-03-03T00:28:55.740Z,54.60
2018-03-03T00:31:23.997Z,58.08
2018-03-03T00:33:53.016Z,51.15
2018-03-03T00:36:21.169Z,52.25
2018-03-03T00:38:50.086Z,53.35
2018-03-03T00:41:18.208Z,55.92
2018-03-03T00:43:46.335Z,56.35
2018-03-03T00:46:14.469Z,54.83
2018-03-03T00:48:42.656Z,56.53
2018-03-03T00:51:10.796Z,56.67
2018-03-03T00:53:38.985Z,54.40
2018-03-03T00:56:07.882Z,53.72
2018-03-03T00:58:36.777Z,54.70
2018-03-03T01:01:04.958Z,55.70
2018-03-03T01:03:33.113Z,60.00
2018-03-03T01:06:02.020Z,54.95
2018-03-03T01:08:30.155Z,54.85
2018-03-03T01:10:59.807Z,53.87
2018-03-03T01:13:28.169Z,56.35
2018-03-03T01:15:56.311Z,53.08
2018-03-03T01:18:24.435Z,55.38
2018-03-03T01:20:52.580Z,60.85
2018-03-03T01:23:21.948Z,58.75
2018-03-03T01:25:50.098Z,56.53
2018-03-03T01:28:18.224Z,57.90
2018-03-03T01:30:46.478Z,56.60
2018-03-03T01:33:14.598Z,57.58
2018-03-03T01:35:42.745Z,58.08
2018-03-03T01:38:10.937Z,58.40
2018-03-03T01:40:39.046Z,58.60
2018-03-03T01:43:07.190Z,61.37
2018-03-03T01:45:35.321Z,54.60
2018-03-03T01:48:04.232Z,60.30
2018-03-03T01:50:32.358Z,59.38
2018-03-03T01:53:00.503Z,57.62
2018-03-03T01:55:28.633Z,56.58
2018-03-03T01:57:56.784Z,57.03
2018-03-03T02:00:25.692Z,58.40
2018-03-03T02:02:53.897Z,56.70
2018-03-03T02:05:22.025Z,58.87
2018-03-03T02:07:50.933Z,57.30
2018-03-03T02:10:19.082Z,55.22
2018-03-03T02:12:47.998Z,57.25
2018-03-03T02:15:16.124Z,54.80
2018-03-03T02:17:44.274Z,53.87
2018-03-03T02:20:12.405Z,55.55
2018-03-03T02:22:40.545Z,54.33
2018-03-03T02:25:08.685Z,52.67
2018-03-03T02:27:36.817Z,56.97
2018-03-03T02:30:05.052Z,58.13
2018-03-03T02:32:33.182Z,60.35
2018-03-03T02:35:01.322Z,54.33
2018-03-03T02:37:30.245Z,59.05
2018-03-03T02:39:58.392Z,58.35
2018-03-03T02:42:26.524Z,60.05
2018-03-03T02:44:54.677Z,56.55
2018-03-03T02:47:22.808Z,57.08
2018-03-03T02:49:50.955Z,51.97
2018-03-03T02:52:19.082Z,53.78
2018-03-03T02:54:47.269Z,50.55
2018-03-03T02:57:15.396Z,53.55
2018-03-03T02:59:43.524Z,54.17
2018-03-03T03:02:11.674Z,57.22
2018-03-03T03:04:40.150Z,57.88
2018-03-03T03:07:08.278Z,57.55
2018-03-03T03:09:37.165Z,58.40
2018-03-03T03:12:06.073Z,59.00
2018-03-03T03:14:34.196Z,58.70
2018-03-03T03:17:02.345Z,56.75
2018-03-03T03:19:30.477Z,53.67
2018-03-03T03:21:59.453Z,56.58
2018-03-03T03:24:28.343Z,53.78
2018-03-03T03:26:57.264Z,55.38
2018-03-03T03:29:25.393Z,53.60
2018-03-03T03:31:53.530Z,55.40
2018-03-03T03:34:21.677Z,54.60
2018-03-03T03:36:49.801Z,54.15
2018-03-03T03:39:17.950Z,56.78
2018-03-03T03:41:46.145Z,58.65
2018-03-03T03:44:14.297Z,55.05
2018-03-03T03:46:42.428Z,54.38
2018-03-03T03:49:10.948Z,55.40
2018-03-03T03:51:39.094Z,58.72
2018-03-03T03:54:07.237Z,55.20
2018-03-03T03:56:36.175Z,60.85
2018-03-03T03:59:04.300Z,55.17
2018-03-03T04:01:33.201Z,61.97
2018-03-03T04:04:01.351Z,61.30
2018-03-03T04:06:30.237Z,59.35
2018-03-03T04:08:58.365Z,65.37
2018-03-03T04:11:26.513Z,60.58
2018-03-03T04:13:54.643Z,56.20
2018-03-03T04:16:22.834Z,59.05
2018-03-03T04:18:50.972Z,59.92
2018-03-03T04:21:19.121Z,61.60
2018-03-03T04:23:47.256Z,68.70
2018-03-03T04:26:16.178Z,60.20
2018-03-03T04:28:44.337Z,61.83
2018-03-03T04:31:12.493Z,62.75
2018-03-03T04:33:40.637Z,60.55
2018-03-03T04:36:08.813Z,58.90
2018-03-03T04:38:36.945Z,62.70
2018-03-03T04:41:05.115Z,63.35
2018-03-03T04:43:33.250Z,65.00
2018-03-03T04:46:02.170Z,66.70
2018-03-03T04:48:30.306Z,60.60
2018-03-03T04:50:59.298Z,63.65
2018-03-03T04:53:28.205Z,59.38
2018-03-03T04:55:56.340Z,58.00
2018-03-03T04:58:39.358Z,61.70
2018-03-03T05:01:13.036Z,63.22
2018-03-03T05:03:46.837Z,62.78
2018-03-03T05:06:15.550Z,59.30
2018-03-03T05:08:43.697Z,57.62
2018-03-03T05:11:12.280Z,59.67
2018-03-03T05:13:42.017Z,60.17
2018-03-03T05:16:15.826Z,62.53
2018-03-03T05:32:18.180Z,60.25
2018-03-03T05:48:28.986Z,61.15
2018-03-03T05:50:59.077Z,58.30
2018-03-03T06:07:17.780Z,58.17
2018-03-03T06:09:50.404Z,59.80
2018-03-03T06:12:18.553Z,59.22
2018-03-03T06:14:46.688Z,60.85
2018-03-03T06:17:14.830Z,61.22
2018-03-03T06:19:42.956Z,61.75
2018-03-03T06:22:11.877Z,60.65
2018-03-03T06:24:40.011Z,59.55
2018-03-03T06:27:08.625Z,63.40
2018-03-03T06:29:36.754Z,61.03
2018-03-03T06:32:04.933Z,57.30
2018-03-03T06:34:33.069Z,57.40
2018-03-03T06:37:01.219Z,59.50
2018-03-03T06:39:29.354Z,62.08
2018-03-03T06:41:58.291Z,63.50
2018-03-03T06:44:26.426Z,58.90
2018-03-03T06:46:54.586Z,61.67
2018-03-03T06:49:23.486Z,58.97
2018-03-03T06:51:51.637Z,63.78
2018-03-03T06:54:19.774Z,60.58
2018-03-03T06:56:47.931Z,62.03
2018-03-03T06:59:16.068Z,62.25
2018-03-03T07:01:44.969Z,68.35
2018-03-03T07:04:13.157Z,69.57
2018-03-03T07:06:41.319Z,70.05
2018-03-03T07:09:09.456Z,67.53
2018-03-03T07:11:37.598Z,68.47
2018-03-03T07:14:05.746Z,67.12
2018-03-03T07:16:33.905Z,69.95
2018-03-03T07:19:02.085Z,64.70
2018-03-03T07:21:30.229Z,64.95
2018-03-03T07:23:58.365Z,71.35
2018-03-03T07:26:26.510Z,72.20
2018-03-03T07:28:54.708Z,69.50
2018-03-03T07:31:22.848Z,67.97
2018-03-03T07:33:50.992Z,66.22
2018-03-03T07:36:19.893Z,65.60
2018-03-03T07:38:48.052Z,67.87
2018-03-03T07:41:16.953Z,67.12
2018-03-03T07:43:45.078Z,65.95
2018-03-03T07:46:13.225Z,67.00
2018-03-03T07:48:41.361Z,67.60
2018-03-03T07:51:09.513Z,67.12
2018-03-03T07:53:38.419Z,66.10
2018-03-03T07:56:07.326Z,68.65
2018-03-03T07:58:47.186Z,67.22
2018-03-03T08:01:15.322Z,68.03
2018-03-03T08:03:43.452Z,66.82
2018-03-03T08:06:11.635Z,67.60
2018-03-03T08:08:42.341Z,71.72
2018-03-03T08:11:10.521Z,70.15
2018-03-03T08:13:38.645Z,62.50
2018-03-03T08:16:06.801Z,63.85
2018-03-03T08:18:35.709Z,68.07
2018-03-03T08:21:04.002Z,72.80
2018-03-03T08:23:32.162Z,70.32
2018-03-03T08:26:00.361Z,67.60
2018-03-03T08:28:28.488Z,68.28
2018-03-03T08:30:57.478Z,66.10
2018-03-03T08:33:26.502Z,67.95
2018-03-03T08:35:54.872Z,69.07
2018-03-03T08:38:23.005Z,64.18
2018-03-03T08:40:51.229Z,68.95
2018-03-03T08:43:19.381Z,70.25
2018-03-03T08:45:47.518Z,68.50
2018-03-03T08:48:15.674Z,67.20
2018-03-03T08:50:43.805Z,67.10
2018-03-03T08:53:11.993Z,68.45
2018-03-03T08:55:40.121Z,72.45
2018-03-03T08:58:08.423Z,67.75
2018-03-03T09:00:36.548Z,64.47
2018-03-03T09:03:04.693Z,69.97
2018-03-03T09:05:32.822Z,67.10
2018-03-03T09:08:01.725Z,65.68
2018-03-03T09:10:29.862Z,63.33
2018-03-03T09:12:58.009Z,69.10
2018-03-03T09:15:26.153Z,62.55
2018-03-03T09:17:54.294Z,69.53
2018-03-03T09:20:23.699Z,68.43
2018-03-03T09:22:51.845Z,64.90
2018-03-03T09:25:19.986Z,67.60
2018-03-03T09:27:48.131Z,72.68
2018-03-03T09:30:16.261Z,69.10
2018-03-03T09:32:45.209Z,66.37
2018-03-03T09:35:13.363Z,65.65
2018-03-03T09:37:41.503Z,67.95
2018-03-03T09:40:10.422Z,68.20
2018-03-03T09:42:38.554Z,71.75
2018-03-03T09:45:06.701Z,60.97
2018-03-03T09:47:34.825Z,72.30
2018-03-03T09:50:03.089Z,73.65
2018-03-03T09:52:32.096Z,71.53
2018-03-03T09:55:00.270Z,70.10
2018-03-03T09:57:28.412Z,67.95
2018-03-03T09:59:56.614Z,59.47
2018-03-03T10:02:24.741Z,67.68
2018-03-03T10:04:52.889Z,65.60
2018-03-03T10:07:21.017Z,68.82
2018-03-03T10:09:49.165Z,67.20
2018-03-03T10:12:17.481Z,67.97
2018-03-03T10:14:45.632Z,66.53
2018-03-03T10:17:13.874Z,66.93
2018-03-03T10:22:16.533Z,67.25
2018-03-03T10:24:44.779Z,70.05
2018-03-03T10:27:13.692Z,69.07
2018-03-03T10:29:41.895Z,68.50
2018-03-03T10:32:11.845Z,61.47
2018-03-03T10:34:40.772Z,70.20
2018-03-03T10:37:08.901Z,61.90
2018-03-03T10:39:37.782Z,67.22
2018-03-03T10:42:06.694Z,66.05
2018-03-03T10:44:34.829Z,60.58
2018-03-03T10:47:03.119Z,65.70
2018-03-03T10:49:31.386Z,64.72
2018-03-03T10:52:00.305Z,58.33
2018-03-03T10:54:28.505Z,59.33
2018-03-03T10:56:56.702Z,59.08
2018-03-03T10:59:24.837Z,56.28
2018-03-03T11:01:52.970Z,57.47
2018-03-03T11:04:21.853Z,56.03
2018-03-03T11:06:49.989Z,60.08
2018-03-03T11:09:18.122Z,63.70
2018-03-03T11:11:46.278Z,61.72
2018-03-03T11:14:15.177Z,57.42
2018-03-03T11:16:44.072Z,59.88
2018-03-03T11:19:12.208Z,57.08
2018-03-03T11:21:41.106Z,54.70
2018-03-03T11:24:10.028Z,61.67
2018-03-03T11:26:38.157Z,60.30
2018-03-03T11:29:06.317Z,65.90
2018-03-03T11:31:34.470Z,62.17
2018-03-03T11:34:02.680Z,57.72
2018-03-03T11:36:30.821Z,66.35
2018-03-03T11:38:59.065Z,61.53
2018-03-03T11:41:27.201Z,66.32
2018-03-03T11:43:56.126Z,58.72
2018-03-03T11:46:24.286Z,62.05
2018-03-03T11:48:53.198Z,58.95
2018-03-03T11:51:21.321Z,60.20
2018-03-03T11:53:49.463Z,56.92
2018-03-03T11:56:17.593Z,56.88
2018-03-03T11:58:45.740Z,58.40
2018-03-03T12:01:14.630Z,52.90
2018-03-03T12:03:43.575Z,57.20
2018-03-03T12:06:11.701Z,63.17
2018-03-03T12:08:40.626Z,58.90
2018-03-03T12:11:08.743Z,56.47
2018-03-03T12:13:36.896Z,58.03
2018-03-03T12:16:05.042Z,57.30
2018-03-03T12:18:33.194Z,61.17
2018-03-03T12:21:01.321Z,58.75
2018-03-03T12:23:29.464Z,57.22
2018-03-03T12:25:57.590Z,56.35
2018-03-03T12:28:25.726Z,56.25
2018-03-03T12:30:53.831Z,53.87
2018-03-03T12:33:22.737Z,53.00
2018-03-03T12:35:50.862Z,56.15
2018-03-03T12:38:19.008Z,55.80
2018-03-03T12:40:47.129Z,53.15
2018-03-03T12:43:16.053Z,51.53
2018-03-03T12:45:44.185Z,54.08
2018-03-03T12:48:12.381Z,52.85
2018-03-03T12:50:40.500Z,58.45
2018-03-03T12:53:08.656Z,55.28
2018-03-03T12:55:36.766Z,58.13
2018-03-03T12:58:04.910Z,56.72
2018-03-03T13:00:33.037Z,56.97
2018-03-03T13:03:02.147Z,53.80
2018-03-03T13:05:31.018Z,55.42
2018-03-03T13:07:59.941Z,44.20
2018-03-03T13:10:28.071Z,50.00
2018-03-03T13:12:56.980Z,48.33
2018-03-03T13:15:25.107Z,48.55
2018-03-03T13:17:53.253Z,41.33
2018-03-03T13:20:21.379Z,43.17
2018-03-03T13:22:50.274Z,46.08
2018-03-03T13:25:18.404Z,41.78
2018-03-03T13:27:46.530Z,36.50
2018-03-03T13:30:14.682Z,31.87
2018-03-03T13:32:42.809Z,38.10
2018-03-03T13:35:10.945Z,37.75
2018-03-03T13:37:39.066Z,38.40
2018-03-03T13:40:07.222Z,37.58
2018-03-03T13:42:35.347Z,34.75
2018-03-03T13:45:04.257Z,35.47
2018-03-03T13:47:32.385Z,38.50
2018-03-03T13:50:00.657Z,47.17
2018-03-03T13:52:28.794Z,48.33
2018-03-03T13:54:57.057Z,50.85
2018-03-03T13:57:25.176Z,50.85
2018-03-03T13:59:53.326Z,52.88
2018-03-03T14:02:21.461Z,55.15
2018-03-03T14:04:49.593Z,53.67
2018-03-03T14:07:17.708Z,49.83
2018-03-03T14:09:45.853Z,52.62
2018-03-03T14:14:49.104Z,54.60
2018-03-03T14:17:17.225Z,52.55
2018-03-03T14:19:46.121Z,48.30
2018-03-03T14:22:15.009Z,47.53
2018-03-03T14:24:43.910Z,52.35
2018-03-03T14:27:12.066Z,45.08
2018-03-03T14:29:40.222Z,44.15
2018-03-03T14:32:08.349Z,46.75
2018-03-03T14:34:36.489Z,46.83
2018-03-03T14:37:04.613Z,49.35
2018-03-03T14:39:32.750Z,48.63
2018-03-03T14:42:00.910Z,53.53
2018-03-03T14:44:29.046Z,45.70
2018-03-03T14:46:57.177Z,45.75
2018-03-03T14:49:25.321Z,46.80
2018-03-03T14:51:54.198Z,41.08
2018-03-03T14:54:22.533Z,44.58
2018-03-03T14:56:51.433Z,43.75
2018-03-03T14:59:19.643Z,46.85
2018-03-03T15:01:48.558Z,48.05
2018-03-03T15:04:16.750Z,44.00
2018-03-03T15:06:49.882Z,45.08
2018-03-03T15:09:18.815Z,48.03
2018-03-03T15:11:46.957Z,43.83
2018-03-03T15:14:15.077Z,42.85
2018-03-03T15:16:43.236Z,38.63
2018-03-03T15:19:11.364Z,40.28
2018-03-03T15:21:40.274Z,43.70
2018-03-03T15:24:08.498Z,42.05
2018-03-03T15:26:38.520Z,41.20
2018-03-03T15:29:06.658Z,43.80
2018-03-03T15:31:34.793Z,37.47
2018-03-03T15:34:03.711Z,36.25
2018-03-03T15:36:31.855Z,37.17
2018-03-03T15:39:00.002Z,39.17
2018-03-03T15:41:28.124Z,37.22
2018-03-03T15:43:56.259Z,39.17
2018-03-03T15:46:25.163Z,38.33
2018-03-03T15:48:53.284Z,34.55
2018-03-03T15:51:21.409Z,36.25
2018-03-03T15:53:49.561Z,36.33
2018-03-03T15:56:18.453Z,35.08
2018-03-03T15:58:47.353Z,37.05
2018-03-03T16:01:15.477Z,32.53
2018-03-03T16:03:43.619Z,36.20
2018-03-03T16:06:11.733Z,37.20
2018-03-03T16:08:39.873Z,47.05
2018-03-03T16:11:07.988Z,47.72
2018-03-03T16:13:36.890Z,44.28
2018-03-03T16:16:05.777Z,42.97
2018-03-03T16:18:34.677Z,43.58
2018-03-03T16:21:03.157Z,42.70
2018-03-03T16:23:32.053Z,44.45
2018-03-03T16:26:00.182Z,43.47
2018-03-03T16:28:28.320Z,41.50
2018-03-03T16:30:56.440Z,46.58
2018-03-03T16:33:25.374Z,47.40
2018-03-03T16:35:53.501Z,40.78
2018-03-03T16:38:21.664Z,41.80
2018-03-03T16:40:49.802Z,43.90
2018-03-03T16:43:17.973Z,40.42
2018-03-03T16:45:46.156Z,57.03
2018-03-03T16:48:14.297Z,50.55
2018-03-03T16:50:42.474Z,44.38
2018-03-03T16:53:10.629Z,41.03
2018-03-03T16:55:38.769Z,41.95
2018-03-03T16:58:07.658Z,44.45
2018-03-03T17:00:36.566Z,46.53
2018-03-03T17:03:05.797Z,43.67
2018-03-03T17:05:34.161Z,41.90
2018-03-03T17:08:02.277Z,42.40
2018-03-03T17:10:30.502Z,43.22
2018-03-03T17:12:58.642Z,43.83
2018-03-03T17:15:27.565Z,43.45
2018-03-03T17:17:55.797Z,43.17
2018-03-03T17:20:25.569Z,41.42
2018-03-03T17:22:53.736Z,42.30
2018-03-03T17:25:22.668Z,42.65
2018-03-03T17:27:50.912Z,49.58
2018-03-03T17:30:20.143Z,51.70
2018-03-03T17:32:48.328Z,55.88
2018-03-03T17:35:17.233Z,59.88
2018-03-03T17:37:45.369Z,54.47
2018-03-03T17:40:13.518Z,48.42
2018-03-03T17:42:41.636Z,42.22
2018-03-03T17:45:09.801Z,55.92
2018-03-03T17:47:37.971Z,55.12
2018-03-03T17:50:06.939Z,51.50
2018-03-03T17:52:35.088Z,55.53
2018-03-03T17:55:03.222Z,50.65
2018-03-03T17:57:31.365Z,48.67
2018-03-03T17:59:59.490Z,49.33
2018-03-03T18:02:27.626Z,49.35
2018-03-03T18:04:56.561Z,46.97
2018-03-03T18:07:25.435Z,49.10
2018-03-03T18:09:53.557Z,51.65
2018-03-03T18:12:21.696Z,48.17
2018-03-03T18:14:49.821Z,49.00
2018-03-03T18:17:17.966Z,48.53
2018-03-03T18:19:46.094Z,48.55
2018-03-03T18:22:14.238Z,48.83
2018-03-03T18:24:42.378Z,51.80
2018-03-03T18:27:10.512Z,49.63
2018-03-03T18:29:38.645Z,50.97
2018-03-03T18:32:06.790Z,50.60
2018-03-03T18:34:34.930Z,56.50
2018-03-03T18:37:03.061Z,52.80
2018-03-03T18:39:31.562Z,52.08
2018-03-03T18:41:59.826Z,53.08
2018-03-03T18:44:28.046Z,53.40
2018-03-03T18:46:56.273Z,52.10
2018-03-03T18:49:24.405Z,54.13
2018-03-03T18:51:52.522Z,52.67
2018-03-03T18:54:20.661Z,56.37
2018-03-03T18:56:49.582Z,51.45
2018-03-03T18:59:17.726Z,51.47
2018-03-03T19:01:46.622Z,48.67
2018-03-03T19:04:15.517Z,48.90
2018-03-03T19:06:44.408Z,54.55
2018-03-03T19:09:13.328Z,54.60
2018-03-03T19:11:41.445Z,51.70
2018-03-03T19:14:09.609Z,57.85
2018-03-03T19:16:37.733Z,71.30
2018-03-03T19:19:05.883Z,66.45
2018-03-03T19:21:34.769Z,56.15
2018-03-03T19:24:03.673Z,58.42
2018-03-03T19:26:31.807Z,56.17
2018-03-03T19:28:59.946Z,60.53
2018-03-03T19:31:28.144Z,57.50
2018-03-03T19:33:56.279Z,56.72
2018-03-03T19:36:24.405Z,56.25
2018-03-03T19:38:53.317Z,56.28
2018-03-03T19:41:21.446Z,53.97
2018-03-03T19:43:49.597Z,57.42
2018-03-03T19:46:17.722Z,55.65
2018-03-03T19:48:46.624Z,58.05
2018-03-03T19:51:14.758Z,56.92
2018-03-03T19:53:42.901Z,54.40
2018-03-03T19:56:11.029Z,54.05
2018-03-03T19:58:39.941Z,55.75
2018-03-03T20:01:08.070Z,53.38
2018-03-03T20:03:36.216Z,56.47
2018-03-03T20:06:04.367Z,55.60
2018-03-03T20:08:32.514Z,57.42
2018-03-03T20:11:00.724Z,57.67
2018-03-03T20:13:28.925Z,56.28
2018-03-03T20:15:57.120Z,55.95
2018-03-03T20:18:25.246Z,54.90
2018-03-03T20:20:53.355Z,57.30
2018-03-03T20:23:21.533Z,53.05
2018-03-03T20:25:50.441Z,56.05
2018-03-03T20:28:18.607Z,56.13
2018-03-03T20:30:46.833Z,53.08
2018-03-03T20:33:14.989Z,52.22
2018-03-03T20:35:43.109Z,55.78
2018-03-03T20:38:12.108Z,52.88
2018-03-03T20:40:40.285Z,53.63
2018-03-03T20:43:08.431Z,55.03
2018-03-03T20:45:37.325Z,52.70
2018-03-03T20:48:06.241Z,54.15
2018-03-03T20:50:34.378Z,51.85
2018-03-03T20:53:03.393Z,51.30
2018-03-03T20:55:31.532Z,49.20
2018-03-03T20:57:59.673Z,54.53
2018-03-03T21:00:28.784Z,53.33
2018-03-03T21:02:56.914Z,52.25
2018-03-03T21:05:25.382Z,51.45
2018-03-03T21:07:53.917Z,52.95
2018-03-03T21:10:22.053Z,50.30
2018-03-03T21:12:51.209Z,49.45
2018-03-03T21:15:19.333Z,50.25
2018-03-03T21:17:47.470Z,54.20
2018-03-03T21:20:15.621Z,50.50
2018-03-03T21:22:44.514Z,50.50
2018-03-03T21:25:13.521Z,50.15
2018-03-03T21:27:41.653Z,50.22
2018-03-03T21:30:09.810Z,50.08
2018-03-03T21:32:37.941Z,52.70
2018-03-03T21:35:06.078Z,49.60
2018-03-03T21:37:34.969Z,49.70
2018-03-03T21:40:03.900Z,48.80
2018-03-03T21:42:32.358Z,48.65
2018-03-03T21:45:00.498Z,51.22
2018-03-03T21:47:28.637Z,45.78
2018-03-03T21:49:56.874Z,47.38
2018-03-03T21:52:25.045Z,47.78
2018-03-03T21:54:53.250Z,44.42
2018-03-03T21:57:21.365Z,44.90
2018-03-03T21:59:50.277Z,45.55
2018-03-03T22:02:18.414Z,43.85
2018-03-03T22:04:49.518Z,46.83
2018-03-03T22:07:17.659Z,45.65
2018-03-03T22:09:45.825Z,43.38
2018-03-03T22:12:14.036Z,45.17
2018-03-03T22:14:42.173Z,48.87
2018-03-03T22:17:10.391Z,44.70
2018-03-03T22:19:38.514Z,43.67
2018-03-03T22:22:06.661Z,44.50
2018-03-03T22:24:35.282Z,47.22
2018-03-03T22:27:03.533Z,44.28
2018-03-03T22:29:31.700Z,44.85
2018-03-03T22:32:00.676Z,46.55
2018-03-03T22:34:28.908Z,48.97
2018-03-03T22:36:57.036Z,46.30
2018-03-03T22:39:25.978Z,48.00
2018-03-03T22:41:54.222Z,46.08
2018-03-03T22:44:22.518Z,44.65
2018-03-03T22:46:50.653Z,45.33
2018-03-03T22:49:19.557Z,47.38
2018-03-03T22:51:47.748Z,45.20
2018-03-03T22:54:15.909Z,47.65
2018-03-03T22:56:44.050Z,44.65
2018-03-03T22:59:12.193Z,46.03
2018-03-03T23:01:40.437Z,45.47
2018-03-03T23:04:08.591Z,46.83
2018-03-03T23:06:36.729Z,45.05
2018-03-03T23:09:05.653Z,41.50
2018-03-03T23:11:33.813Z,45.42
2018-03-03T23:14:02.725Z,48.63
2018-03-03T23:16:30.950Z,46.22
2018-03-03T23:18:59.213Z,46.33
2018-03-03T23:21:28.295Z,46.92
2018-03-03T23:23:56.548Z,45.83
2018-03-03T23:26:24.721Z,46.45
2018-03-03T23:28:52.913Z,47.90
2018-03-03T23:31:21.137Z,44.13
2018-03-03T23:33:50.039Z,47.60
2018-03-03T23:36:18.893Z,44.30
2018-03-03T23:38:47.788Z,47.28
2018-03-03T23:41:16.777Z,47.85
2018-03-03T23:43:45.673Z,48.33
2018-03-03T23:46:14.630Z,45.70
2018-03-03T23:48:42.758Z,44.90
2018-03-03T23:51:10.888Z,44.78
2018-03-03T23:53:39.183Z,44.58
2018-03-03T23:56:07.309Z,49.50
2018-03-03T23:58:37.099Z,45.75
